createdAt,value
2019-04-04T19:41:14.707Z,39.35
2019-04-04T19:43:45.086Z,39.35
2019-04-04T19:46:15.419Z,39.35
2019-04-04T19:48:48.177Z,39.35
2019-04-04T19:51:17.889Z,39.34
2019-04-04T19:53:49.949Z,39.35
2019-04-04T19:56:21.586Z,39.35
2019-04-04T19:58:55.393Z,39.35
2019-04-04T20:01:25.881Z,39.33
2019-04-04T20:03:59.283Z,39.33
2019-04-04T20:06:29.629Z,39.31
2019-04-04T20:09:00.312Z,39.32
2019-04-04T20:11:30.725Z,39.30
2019-04-04T20:14:03.177Z,39.32
2019-04-04T20:16:36.063Z,39.31
2019-04-04T20:19:08.059Z,39.29
2019-04-04T20:21:38.459Z,39.28
2019-04-04T20:24:08.836Z,39.26
2019-04-04T20:26:39.178Z,39.25
2019-04-04T20:29:09.530Z,39.25
2019-04-04T20:31:39.915Z,39.24
2019-04-04T20:34:10.351Z,39.21
2019-04-04T20:36:41.994Z,39.19
2019-04-04T20:39:12.732Z,39.19
2019-04-04T20:41:43.104Z,39.19
2019-04-04T20:44:13.411Z,39.19
2019-04-04T20:46:43.809Z,39.17
2019-04-04T20:49:14.185Z,39.18
2019-04-04T20:51:44.950Z,39.17
2019-04-04T20:54:15.750Z,39.14
2019-04-04T20:56:46.400Z,39.15
2019-04-04T20:59:17.087Z,39.15
2019-04-04T21:01:47.394Z,39.12
2019-04-04T21:04:17.923Z,39.18
2019-04-04T21:06:48.343Z,39.17
2019-04-04T21:09:18.638Z,39.16
2019-04-04T21:11:48.977Z,39.13
2019-04-04T21:14:19.278Z,39.20
2019-04-04T21:16:49.645Z,39.23
2019-04-04T21:19:21.133Z,39.24
2019-04-04T21:21:51.474Z,39.23
2019-04-04T21:24:21.843Z,39.24
2019-04-04T21:26:52.259Z,39.25
2019-04-04T21:29:23.436Z,39.25
2019-04-04T21:31:56.103Z,39.27
2019-04-04T21:34:26.863Z,39.29
2019-04-04T21:36:57.164Z,39.35
2019-04-04T21:39:29.763Z,39.34
2019-04-04T21:41:59.574Z,39.35
2019-04-04T21:44:29.941Z,39.41
2019-04-04T21:47:00.308Z,39.45
2019-04-04T21:49:31.547Z,39.51
2019-04-04T21:52:02.209Z,39.52
2019-04-04T21:54:32.541Z,39.50
2019-04-04T21:57:03.225Z,39.51
2019-04-04T21:59:33.625Z,39.50
2019-04-04T22:02:04.149Z,39.48
2019-04-04T22:04:34.474Z,39.48
2019-04-04T22:07:06.544Z,39.47
2019-04-04T22:09:36.891Z,39.47
2019-04-04T22:12:07.240Z,39.49
2019-04-04T22:14:37.883Z,39.49
2019-04-04T22:17:08.249Z,39.54
2019-04-04T22:19:38.830Z,39.60
2019-04-04T22:22:09.542Z,39.58
2019-04-04T22:24:40.272Z,39.57
2019-04-04T22:27:10.622Z,39.57
2019-04-04T22:29:41.013Z,39.56
2019-04-04T22:32:11.906Z,39.58
2019-04-04T22:34:42.824Z,39.62
2019-04-04T22:37:13.227Z,39.66
2019-04-04T22:39:44.087Z,39.74
2019-04-04T22:42:14.832Z,39.75
2019-04-04T22:44:45.147Z,39.75
2019-04-04T22:47:16.030Z,39.76
2019-04-04T22:49:46.366Z,39.77
2019-04-04T22:52:16.685Z,39.80
2019-04-04T22:54:47.064Z,39.83
2019-04-04T22:57:17.795Z,39.86
2019-04-04T22:59:48.190Z,39.90
2019-04-04T23:02:18.521Z,39.92
2019-04-04T23:04:48.935Z,39.95
2019-04-04T23:07:19.322Z,39.94
2019-04-04T23:09:49.702Z,39.94
2019-04-04T23:12:20.079Z,39.96
2019-04-04T23:14:50.400Z,39.99
2019-04-04T23:17:20.750Z,40.00
2019-04-04T23:19:51.083Z,40.01
2019-04-04T23:22:21.430Z,40.01
2019-04-04T23:24:52.179Z,40.04
2019-04-04T23:27:22.463Z,40.03
2019-04-04T23:29:52.926Z,40.04
2019-04-04T23:32:23.254Z,40.04
2019-04-04T23:34:53.610Z,40.05
2019-04-04T23:37:23.992Z,40.08
2019-04-04T23:39:54.997Z,40.09
2019-04-04T23:42:25.334Z,40.11
2019-04-04T23:45:01.185Z,40.14
2019-04-04T23:47:28.635Z,40.13
2019-04-04T23:49:58.946Z,40.17
2019-04-04T23:52:29.717Z,40.17
2019-04-04T23:55:00.097Z,40.21
2019-04-04T23:57:30.484Z,40.20
